Terminal Aerodrome Forecast
Issued by NWS Charleston, WV

Current Version | Previous Version | Graphics & Text | Print | Product List | Glossary On
Versions: 1 2 3 4 5 6 7 8 9 10 11 12 13 14 15 16 17 18 19 20 21 22 23 24 25 26 27 28 29 30 31 32
000
FTUS41 KRLX 211400 AAB
TAFEKN
TAF AMD
KEKN 211433Z 2115/2212 00000KT P6SM SCT035
     FM212000 VRB03KT P6SM BKN035
     FM220200 00000KT 4SM BR BKN035
     FM220600 00000KT 2SM BR SCT030
     FM220700 00000KT 1/4SM FG SCT250=

USA.gov is the U.S. government's official web portal to all federal, state and local government web resources and services.